createdAt,value
2022-08-02T00:00:13.042Z,101905.41
2022-08-02T00:02:40.725Z,101905.75
2022-08-02T00:05:08.127Z,101904.88
2022-08-02T00:07:39.136Z,101898.53
2022-08-02T00:10:09.982Z,101899.19
2022-08-02T00:12:37.761Z,101885.19
2022-08-02T00:15:06.336Z,101880.00
2022-08-02T00:17:33.164Z,101887.28
2022-08-02T00:20:00.074Z,101888.72
2022-08-02T00:22:26.897Z,101886.66
2022-08-02T00:24:54.035Z,101883.69
2022-08-02T00:27:20.889Z,101893.91
2022-08-02T00:29:52.601Z,101895.72
2022-08-02T00:32:22.678Z,101892.91
2022-08-02T00:34:50.802Z,101903.16
2022-08-02T00:37:17.970Z,101895.56
2022-08-02T00:39:44.967Z,101894.53
2022-08-02T00:42:15.217Z,101894.47
2022-08-02T00:44:42.405Z,101893.28
2022-08-02T00:47:09.849Z,101892.41
2022-08-02T00:49:37.576Z,101891.31
2022-08-02T00:52:05.425Z,101891.31
2022-08-02T00:54:32.299Z,101883.59
2022-08-02T00:56:59.139Z,101887.72
2022-08-02T00:59:26.010Z,101881.91
2022-08-02T01:01:56.654Z,101884.41
2022-08-02T01:04:30.032Z,101879.56
2022-08-02T01:07:12.674Z,101878.50
2022-08-02T01:09:43.472Z,101875.06
2022-08-02T01:12:12.376Z,101876.31
2022-08-02T01:14:42.555Z,101879.38
2022-08-02T01:17:20.700Z,101869.69
2022-08-02T01:19:58.883Z,101864.75
2022-08-02T01:23:02.371Z,101871.19
2022-08-02T01:25:42.280Z,101873.97
2022-08-02T01:28:30.288Z,101878.47
2022-08-02T01:31:21.991Z,101880.94
2022-08-02T01:34:06.703Z,101883.50
2022-08-02T01:36:38.942Z,101871.38
2022-08-02T01:39:09.486Z,101863.38
2022-08-02T01:41:37.226Z,101853.41
2022-08-02T01:44:05.660Z,101853.13
2022-08-02T01:46:34.400Z,101843.28
2022-08-02T01:49:07.384Z,101843.81
2022-08-02T01:51:58.531Z,101838.63
2022-08-02T01:54:29.033Z,101827.06
2022-08-02T01:56:57.742Z,101833.63
2022-08-02T01:59:27.234Z,101842.03
2022-08-02T02:01:56.063Z,101844.66
2022-08-02T02:04:24.462Z,101853.97
2022-08-02T02:06:52.938Z,101854.22
2022-08-02T02:09:22.018Z,101850.56
2022-08-02T02:12:12.086Z,101845.53
2022-08-02T02:14:38.359Z,101838.97
2022-08-02T02:17:06.711Z,101830.06
2022-08-02T02:19:36.197Z,101826.06
2022-08-02T02:22:03.788Z,101818.63
2022-08-02T02:24:31.408Z,101825.19
2022-08-02T02:27:02.584Z,101822.34
2022-08-02T02:29:31.559Z,101810.63
2022-08-02T02:32:00.897Z,101809.91
2022-08-02T02:34:32.070Z,101793.81
2022-08-02T02:37:04.257Z,101787.91
2022-08-02T02:39:33.633Z,101787.69
2022-08-02T02:42:03.839Z,101794.06
2022-08-02T02:44:33.467Z,101795.88
2022-08-02T02:47:01.951Z,101789.44
2022-08-02T02:49:32.949Z,101788.47
2022-08-02T02:52:00.755Z,101793.22
2022-08-02T02:54:34.132Z,101794.56
2022-08-02T02:57:04.454Z,101784.63
2022-08-02T02:59:33.120Z,101781.41
2022-08-02T03:02:00.534Z,101784.78
2022-08-02T03:04:56.276Z,101779.78
2022-08-02T03:07:16.077Z,101787.66
2022-08-02T03:09:43.095Z,101780.69
2022-08-02T03:12:11.084Z,101782.44
2022-08-02T03:14:44.536Z,101785.28
2022-08-02T03:17:16.591Z,101776.75
2022-08-02T03:19:44.620Z,101772.94
2022-08-02T03:22:11.823Z,101770.13
2022-08-02T03:24:39.014Z,101778.44
2022-08-02T03:27:05.898Z,101781.81
2022-08-02T03:29:34.654Z,101780.44
2022-08-02T03:32:02.029Z,101779.69
2022-08-02T03:34:29.461Z,101773.75
2022-08-02T03:36:57.325Z,101761.19
2022-08-02T03:39:26.537Z,101761.88
2022-08-02T03:41:54.702Z,101756.66
2022-08-02T03:44:22.678Z,101758.28
2022-08-02T03:46:49.659Z,101753.34
2022-08-02T03:49:18.501Z,101752.84
2022-08-02T03:51:45.765Z,101748.53
2022-08-02T03:54:14.279Z,101750.22
2022-08-02T03:56:41.404Z,101743.47
2022-08-02T03:59:14.996Z,101739.06
2022-08-02T04:01:42.117Z,101733.28
2022-08-02T04:04:09.585Z,101740.50
2022-08-02T04:06:39.855Z,101735.66
2022-08-02T04:09:09.472Z,101740.66
2022-08-02T04:11:37.838Z,101730.81
2022-08-02T04:14:11.641Z,101732.16
2022-08-02T04:16:43.850Z,101740.09
2022-08-02T04:19:15.475Z,101732.56
2022-08-02T04:21:50.195Z,101731.28
2022-08-02T04:24:24.464Z,101729.81
2022-08-02T04:26:55.076Z,101722.84
2022-08-02T04:29:27.150Z,101734.19
2022-08-02T04:31:54.876Z,101739.25
2022-08-02T04:34:21.780Z,101739.06
2022-08-02T04:36:48.776Z,101729.38
2022-08-02T04:39:15.707Z,101726.16
2022-08-02T04:41:44.597Z,101721.84
2022-08-02T04:44:12.424Z,101725.13
2022-08-02T04:46:40.774Z,101727.25
2022-08-02T04:49:08.000Z,101730.94
2022-08-02T04:51:39.597Z,101730.69
2022-08-02T04:54:09.702Z,101734.22
2022-08-02T04:56:39.077Z,101733.53
2022-08-02T04:59:06.874Z,101741.75
2022-08-02T05:01:35.811Z,101732.66
2022-08-02T05:04:03.508Z,101732.03
2022-08-02T05:06:30.443Z,101716.56
2022-08-02T05:08:57.295Z,101711.63
2022-08-02T05:11:35.977Z,101706.56
2022-08-02T05:14:04.847Z,101726.41
2022-08-02T05:16:32.368Z,101726.41
2022-08-02T05:19:00.982Z,101733.00
2022-08-02T05:21:28.298Z,101729.06
2022-08-02T05:23:55.087Z,101721.00
2022-08-02T05:26:21.984Z,101705.69
2022-08-02T05:28:48.892Z,101704.41
2022-08-02T05:31:15.778Z,101712.69
2022-08-02T05:33:42.701Z,101711.09
2022-08-02T05:36:09.749Z,101715.19
2022-08-02T05:38:37.746Z,101712.22
2022-08-02T05:41:08.251Z,101709.88
2022-08-02T05:43:35.196Z,101709.88
2022-08-02T05:46:02.077Z,101712.56
2022-08-02T05:48:31.905Z,101713.56
2022-08-02T05:51:04.983Z,101711.91
2022-08-02T05:53:46.692Z,101709.19
2022-08-02T05:56:36.353Z,101715.94
2022-08-02T05:59:10.280Z,101728.53
2022-08-02T06:01:41.145Z,101729.97
2022-08-02T06:04:10.139Z,101731.41
2022-08-02T06:06:43.695Z,101729.00
2022-08-02T06:09:16.618Z,101721.88
2022-08-02T06:12:11.563Z,101718.59
2022-08-02T06:14:41.841Z,101710.56
2022-08-02T06:17:09.674Z,101707.69
2022-08-02T06:19:51.946Z,101708.78
2022-08-02T06:22:33.903Z,101708.88
2022-08-02T06:25:48.321Z,101701.53
2022-08-02T06:27:55.723Z,101693.47
2022-08-02T06:30:22.574Z,101694.56
2022-08-02T06:32:52.879Z,101704.84
2022-08-02T06:35:20.177Z,101701.00
2022-08-02T06:37:59.213Z,101697.50
2022-08-02T06:41:09.690Z,101697.66
2022-08-02T06:44:19.520Z,101695.34
2022-08-02T06:47:10.793Z,101694.97
2022-08-02T06:49:52.680Z,101692.16
2022-08-02T06:52:31.251Z,101688.66
2022-08-02T06:54:59.862Z,101688.06
2022-08-02T06:57:27.845Z,101679.88
2022-08-02T06:59:55.290Z,101675.38
2022-08-02T07:02:22.785Z,101672.91
2022-08-02T07:04:50.087Z,101676.84
2022-08-02T07:07:17.178Z,101665.66
2022-08-02T07:09:56.334Z,101670.28
2022-08-02T07:12:30.305Z,101654.53
2022-08-02T07:14:58.495Z,101655.28
2022-08-02T07:17:25.735Z,101658.44
2022-08-02T07:19:52.794Z,101660.50
2022-08-02T07:22:23.146Z,101659.38
2022-08-02T07:24:50.963Z,101675.81
2022-08-02T07:27:18.036Z,101665.66
2022-08-02T07:29:47.040Z,101661.44
2022-08-02T07:32:18.755Z,101663.31
2022-08-02T07:34:52.700Z,101663.09
2022-08-02T07:37:36.137Z,101654.28
2022-08-02T07:40:13.699Z,101660.44
2022-08-02T07:42:45.294Z,101646.09
2022-08-02T07:45:13.087Z,101646.69
2022-08-02T07:47:41.320Z,101638.09
2022-08-02T07:50:10.095Z,101633.78
2022-08-02T07:52:37.104Z,101628.16
2022-08-02T07:55:05.422Z,101615.00
2022-08-02T07:57:33.013Z,101615.84
2022-08-02T08:00:00.272Z,101615.88
2022-08-02T08:02:27.216Z,101623.44
2022-08-02T08:04:54.239Z,101626.47
2022-08-02T08:07:21.261Z,101630.84
2022-08-02T08:09:50.852Z,101625.16
2022-08-02T08:12:23.879Z,101626.56
2022-08-02T08:14:50.714Z,101638.72
2022-08-02T08:17:17.920Z,101626.84
2022-08-02T08:19:51.412Z,101622.25
2022-08-02T08:22:20.401Z,101614.75
2022-08-02T08:24:48.344Z,101605.22
2022-08-02T08:27:16.319Z,101608.25
2022-08-02T08:29:44.204Z,101605.53
2022-08-02T08:32:16.207Z,101603.53
2022-08-02T08:34:48.970Z,101602.75
2022-08-02T08:37:17.075Z,101588.81
2022-08-02T08:39:58.035Z,101585.47
2022-08-02T08:42:27.567Z,101581.41
2022-08-02T08:44:56.567Z,101575.63
2022-08-02T08:47:27.644Z,101577.25
2022-08-02T08:50:04.904Z,101570.06
2022-08-02T08:52:36.666Z,101573.31
2022-08-02T08:55:09.495Z,101571.22
2022-08-02T08:57:41.060Z,101564.59
2022-08-02T09:00:13.423Z,101566.06
2022-08-02T09:02:47.317Z,101568.63
2022-08-02T09:05:16.607Z,101564.34
2022-08-02T09:07:46.958Z,101571.09
2022-08-02T09:10:38.906Z,101570.31
2022-08-02T09:13:38.189Z,101561.47
2022-08-02T09:16:12.170Z,101556.78
2022-08-02T09:18:46.720Z,101556.03
2022-08-02T09:21:16.076Z,101550.38
2022-08-02T09:23:45.544Z,101546.56
2022-08-02T09:26:15.225Z,101549.41
2022-08-02T09:28:44.620Z,101553.06
2022-08-02T09:31:14.789Z,101540.34
2022-08-02T09:33:46.881Z,101543.91
2022-08-02T09:36:16.196Z,101540.47
2022-08-02T09:38:58.270Z,101535.50
2022-08-02T09:41:30.196Z,101540.16
2022-08-02T09:44:04.726Z,101536.09
2022-08-02T09:46:43.384Z,101543.13
2022-08-02T09:49:16.657Z,101547.06
2022-08-02T09:51:47.273Z,101539.56
2022-08-02T09:54:25.262Z,101543.16
2022-08-02T09:56:55.252Z,101529.22
2022-08-02T09:59:26.798Z,101534.16
2022-08-02T10:02:01.963Z,101538.59
2022-08-02T10:04:33.769Z,101532.03
2022-08-02T10:07:04.376Z,101537.41
2022-08-02T10:09:32.322Z,101525.06
2022-08-02T10:12:00.766Z,101529.81
2022-08-02T10:14:28.237Z,101529.06
2022-08-02T10:16:57.361Z,101521.28
2022-08-02T10:19:59.653Z,101522.22
2022-08-02T10:22:14.389Z,101525.94
2022-08-02T10:24:47.654Z,101516.44
2022-08-02T10:27:20.051Z,101514.53
2022-08-02T10:29:53.988Z,101497.16
2022-08-02T10:32:26.695Z,101488.34
2022-08-02T10:34:58.553Z,101498.78
2022-08-02T10:37:47.844Z,101494.34
2022-08-02T10:40:24.115Z,101478.59
2022-08-02T10:42:51.864Z,101481.22
2022-08-02T10:45:20.837Z,101497.13
2022-08-02T10:48:07.401Z,101491.88
2022-08-02T10:50:49.245Z,101484.69
2022-08-02T10:53:23.843Z,101486.56
2022-08-02T10:55:51.108Z,101484.75
2022-08-02T10:58:26.116Z,101489.22
2022-08-02T11:00:57.912Z,101481.28
2022-08-02T11:03:27.893Z,101487.41
2022-08-02T11:06:25.060Z,101468.91
2022-08-02T11:09:33.665Z,101475.97
2022-08-02T11:12:06.037Z,101475.97
2022-08-02T11:14:35.360Z,101474.16
2022-08-02T11:17:07.468Z,101480.34
2022-08-02T11:19:35.142Z,101474.19
2022-08-02T11:22:06.026Z,101484.69
2022-08-02T11:24:35.206Z,101487.44
2022-08-02T11:27:04.559Z,101489.97
2022-08-02T11:29:32.969Z,101481.25
2022-08-02T11:32:15.529Z,101475.97
2022-08-02T11:34:43.843Z,101475.06
2022-08-02T11:37:11.550Z,101475.97
2022-08-02T11:39:38.522Z,101478.63
2022-08-02T11:42:05.789Z,101469.78
2022-08-02T11:44:41.052Z,101467.13
2022-08-02T11:47:08.443Z,101470.66
2022-08-02T11:49:37.349Z,101468.03
2022-08-02T11:52:08.173Z,101465.34
2022-08-02T11:54:40.674Z,101461.81
2022-08-02T11:57:22.436Z,101468.91
2022-08-02T11:59:53.118Z,101476.88
2022-08-02T12:02:22.269Z,101472.44
2022-08-02T12:05:03.015Z,101473.31
2022-08-02T12:07:37.703Z,101475.94
2022-08-02T12:10:22.534Z,101469.66
2022-08-02T12:12:50.849Z,101462.63
2022-08-02T12:15:37.795Z,101464.38
2022-08-02T12:18:28.916Z,101469.78
2022-08-02T12:20:55.986Z,101469.78
2022-08-02T12:23:23.043Z,101475.06
2022-08-02T12:26:06.554Z,101466.13
2022-08-02T12:28:35.620Z,101473.31
2022-08-02T12:31:02.584Z,101467.97
2022-08-02T12:33:52.824Z,101473.28
2022-08-02T12:36:29.938Z,101467.13
2022-08-02T12:38:58.910Z,101473.28
2022-08-02T12:41:30.959Z,101469.78
2022-08-02T12:44:00.163Z,101471.56
2022-08-02T12:46:27.377Z,101470.63
2022-08-02T12:49:16.460Z,101468.00
2022-08-02T12:51:51.106Z,101470.63
2022-08-02T12:54:31.680Z,101467.94
2022-08-02T12:57:11.569Z,101472.28
2022-08-02T12:59:40.146Z,101470.50
2022-08-02T13:02:10.938Z,101470.53
2022-08-02T13:04:38.294Z,101473.19
2022-08-02T13:07:05.776Z,101470.63
2022-08-02T13:09:37.471Z,101484.56
2022-08-02T13:12:05.867Z,101478.19
2022-08-02T13:14:38.188Z,101480.03
2022-08-02T13:17:08.671Z,101480.13
2022-08-02T13:19:37.115Z,101477.41
2022-08-02T13:22:04.406Z,101477.63
2022-08-02T13:24:39.609Z,101480.00
2022-08-02T13:27:08.750Z,101482.69
2022-08-02T13:29:37.943Z,101486.97
2022-08-02T13:32:05.062Z,101484.38
2022-08-02T13:34:31.987Z,101485.13
2022-08-02T13:36:58.892Z,101481.59
2022-08-02T13:39:25.728Z,101479.28
2022-08-02T13:41:52.918Z,101474.59
2022-08-02T13:44:19.885Z,101473.00
2022-08-02T13:46:47.000Z,101465.09
2022-08-02T13:49:18.872Z,101468.53
2022-08-02T13:51:47.987Z,101461.47
2022-08-02T13:54:15.629Z,101462.41
2022-08-02T13:56:42.701Z,101462.50
2022-08-02T13:59:54.304Z,101452.88
2022-08-02T14:01:57.282Z,101454.31
2022-08-02T14:04:25.027Z,101446.66
2022-08-02T14:06:51.936Z,101450.78
2022-08-02T14:09:19.158Z,101450.19
2022-08-02T14:11:46.569Z,101438.75
2022-08-02T14:14:16.449Z,101444.75
2022-08-02T14:16:45.637Z,101431.56
2022-08-02T14:19:16.397Z,101438.56
2022-08-02T14:21:46.019Z,101426.31
2022-08-02T14:24:18.714Z,101422.81
2022-08-02T14:26:46.031Z,101428.16
2022-08-02T14:29:13.795Z,101426.44
2022-08-02T14:31:44.252Z,101419.28
2022-08-02T14:34:16.731Z,101414.91
2022-08-02T14:36:44.003Z,101416.72
2022-08-02T14:39:12.009Z,101415.84
2022-08-02T14:41:59.987Z,101408.72
2022-08-02T14:44:26.115Z,101414.06
2022-08-02T14:46:53.995Z,101410.53
2022-08-02T14:49:25.148Z,101413.19
2022-08-02T14:51:56.948Z,101414.91
2022-08-02T14:54:30.401Z,101412.28
2022-08-02T14:56:59.190Z,101404.28
2022-08-02T14:59:26.454Z,101404.34
2022-08-02T15:01:53.505Z,101397.22
2022-08-02T15:04:20.516Z,101394.59
2022-08-02T15:06:47.417Z,101400.78
2022-08-02T15:09:15.099Z,101390.88
2022-08-02T15:11:47.371Z,101392.81
2022-08-02T15:14:22.023Z,101386.59
2022-08-02T15:16:58.734Z,101380.47
2022-08-02T15:19:56.788Z,101382.22
2022-08-02T15:22:19.189Z,101374.31
2022-08-02T15:24:48.190Z,101373.41
2022-08-02T15:27:15.746Z,101375.16
2022-08-02T15:29:44.120Z,101369.84
2022-08-02T15:32:12.019Z,101364.53
2022-08-02T15:34:44.168Z,101373.31
2022-08-02T15:37:11.034Z,101370.63
2022-08-02T15:39:38.878Z,101362.63
2022-08-02T15:42:05.836Z,101362.59
2022-08-02T15:44:33.999Z,101369.38
2022-08-02T15:47:01.087Z,101377.41
2022-08-02T15:49:28.200Z,101379.84
2022-08-02T15:51:55.204Z,101382.25
2022-08-02T15:54:22.116Z,101379.22
2022-08-02T15:56:49.451Z,101379.78
2022-08-02T15:59:16.957Z,101372.63
2022-08-02T16:01:49.847Z,101378.09
2022-08-02T16:04:16.980Z,101371.00
2022-08-02T16:06:44.973Z,101367.34
2022-08-02T16:09:12.398Z,101359.59
2022-08-02T16:11:39.886Z,101360.66
2022-08-02T16:14:06.991Z,101357.94
2022-08-02T16:16:35.603Z,101358.22
2022-08-02T16:19:46.061Z,101359.00
2022-08-02T16:21:53.494Z,101363.34
2022-08-02T16:24:20.528Z,101364.78
2022-08-02T16:26:47.476Z,101356.63
2022-08-02T16:29:14.802Z,101366.50
2022-08-02T16:31:47.453Z,101367.00
2022-08-02T16:34:14.855Z,101373.31
2022-08-02T16:36:41.691Z,101363.66
2022-08-02T16:39:08.630Z,101370.31
2022-08-02T16:41:50.462Z,101362.91
2022-08-02T16:44:29.287Z,101357.38
2022-08-02T16:47:00.631Z,101361.53
2022-08-02T16:50:04.087Z,101365.66
2022-08-02T16:52:19.093Z,101359.53
2022-08-02T16:57:42.822Z,101371.38
2022-08-02T17:00:13.315Z,101366.88
2022-08-02T17:02:42.380Z,101367.88
2022-08-02T17:08:08.014Z,101375.78
2022-08-02T17:10:43.937Z,101375.72
2022-08-02T17:13:12.135Z,101383.50
2022-08-02T17:16:08.065Z,101389.97
2022-08-02T17:18:28.624Z,101386.28
2022-08-02T17:20:56.323Z,101396.88
2022-08-02T17:23:23.239Z,101389.97
2022-08-02T17:26:10.079Z,101385.47
2022-08-02T17:28:50.847Z,101386.41
2022-08-02T17:31:29.864Z,101387.09
2022-08-02T17:33:57.224Z,101386.38
2022-08-02T17:36:25.873Z,101380.09
2022-08-02T17:38:52.751Z,101391.88
2022-08-02T17:41:19.558Z,101390.00
2022-08-02T17:44:05.909Z,101386.56
2022-08-02T17:46:35.374Z,101388.25
2022-08-02T17:49:16.344Z,101384.66
2022-08-02T17:52:47.816Z,101392.81
2022-08-02T17:54:30.910Z,101393.69
2022-08-02T17:56:57.808Z,101392.66
2022-08-02T17:59:30.665Z,101399.81
2022-08-02T18:02:08.335Z,101403.41
2022-08-02T18:04:35.582Z,101391.06
2022-08-02T18:07:04.620Z,101395.50
2022-08-02T18:09:37.696Z,101403.41
2022-08-02T18:12:11.522Z,101400.72
2022-08-02T18:14:46.216Z,101401.59
2022-08-02T18:17:16.742Z,101394.50
2022-08-02T18:19:57.228Z,101392.78
2022-08-02T18:22:27.037Z,101399.88
2022-08-02T18:24:54.324Z,101389.25
2022-08-02T18:27:21.546Z,101390.16
2022-08-02T18:29:48.905Z,101392.88
2022-08-02T18:33:58.457Z,101390.19
2022-08-02T18:35:18.856Z,101394.59
2022-08-02T18:37:52.126Z,101389.25
2022-08-02T18:40:24.402Z,101399.91
2022-08-02T18:42:51.216Z,101403.44
2022-08-02T18:45:19.428Z,101405.22
2022-08-02T18:47:50.628Z,101412.22
2022-08-02T18:50:18.841Z,101407.78
2022-08-02T18:52:47.827Z,101402.44
2022-08-02T18:55:17.590Z,101399.78
2022-08-02T18:58:19.632Z,101414.31
2022-08-02T19:00:51.636Z,101416.06
2022-08-02T19:03:19.477Z,101416.13
2022-08-02T19:05:53.660Z,101413.41
2022-08-02T19:08:25.279Z,101410.59
2022-08-02T19:10:53.074Z,101412.28
2022-08-02T19:13:20.275Z,101406.06
2022-08-02T19:15:47.815Z,101415.50
2022-08-02T19:18:14.925Z,101412.00
2022-08-02T19:20:48.077Z,101414.97
2022-08-02T19:23:17.109Z,101413.31
2022-08-02T19:25:50.225Z,101412.31
2022-08-02T19:28:17.391Z,101416.78
2022-08-02T19:30:54.076Z,101416.78
2022-08-02T19:33:54.389Z,101409.72
2022-08-02T19:36:08.014Z,101411.50
2022-08-02T19:38:35.434Z,101415.78
2022-08-02T19:41:02.522Z,101418.38
2022-08-02T19:44:24.290Z,101419.22
2022-08-02T19:46:16.327Z,101409.53
2022-08-02T19:48:46.050Z,101420.94
2022-08-02T19:51:14.319Z,101422.59
2022-08-02T19:53:46.680Z,101422.53
2022-08-02T19:56:24.871Z,101427.81
2022-08-02T19:58:54.418Z,101421.47
2022-08-02T20:01:36.641Z,101429.25
2022-08-02T20:04:06.530Z,101420.44
2022-08-02T20:06:33.383Z,101423.00
2022-08-02T20:09:00.974Z,101427.31
2022-08-02T20:11:35.005Z,101419.34
2022-08-02T20:14:04.747Z,101421.78
2022-08-02T20:16:33.337Z,101413.75
2022-08-02T20:19:05.548Z,101412.63
2022-08-02T20:21:36.919Z,101411.56
2022-08-02T20:24:06.852Z,101402.66
2022-08-02T20:26:35.295Z,101405.88
2022-08-02T20:29:04.175Z,101402.94
2022-08-02T20:31:31.291Z,101411.66
2022-08-02T20:33:58.205Z,101406.25
2022-08-02T20:36:26.456Z,101402.88
2022-08-02T20:38:54.462Z,101407.13
2022-08-02T20:41:23.351Z,101407.16
2022-08-02T20:44:03.229Z,101408.28
2022-08-02T20:46:30.620Z,101406.84
2022-08-02T20:49:01.295Z,101404.53
2022-08-02T20:51:33.632Z,101412.31
2022-08-02T20:54:00.809Z,101408.72
2022-08-02T20:56:29.382Z,101406.97
2022-08-02T20:59:03.833Z,101409.03
2022-08-02T21:01:37.061Z,101413.34
2022-08-02T21:04:04.566Z,101408.75
2022-08-02T21:06:31.403Z,101414.75
2022-08-02T21:08:58.738Z,101409.41
2022-08-02T21:11:33.607Z,101410.53
2022-08-02T21:14:08.822Z,101410.16
2022-08-02T21:16:36.830Z,101399.03
2022-08-02T21:19:07.920Z,101400.94
2022-08-02T21:21:35.188Z,101409.78
2022-08-02T21:24:01.988Z,101409.69
2022-08-02T21:26:31.167Z,101401.94
2022-08-02T21:29:03.580Z,101403.31
2022-08-02T21:31:33.544Z,101407.94
2022-08-02T21:34:03.783Z,101409.13
2022-08-02T21:36:49.034Z,101401.78
2022-08-02T21:39:17.778Z,101408.53
2022-08-02T21:41:46.300Z,101407.31
2022-08-02T21:44:20.134Z,101402.81
2022-08-02T21:46:49.707Z,101406.25
2022-08-02T21:49:41.125Z,101402.94
2022-08-02T21:52:12.687Z,101404.63
2022-08-02T21:54:40.037Z,101394.00
2022-08-02T21:57:15.137Z,101399.25
2022-08-02T22:02:35.697Z,101396.75
2022-08-02T22:05:03.238Z,101395.59
2022-08-02T22:07:30.220Z,101391.00
2022-08-02T22:10:06.219Z,101397.81
2022-08-02T22:12:33.080Z,101394.47
2022-08-02T22:15:00.961Z,101405.44
2022-08-02T22:17:51.687Z,101398.59
2022-08-02T22:20:18.181Z,101404.28
2022-08-02T22:22:45.411Z,101397.31
2022-08-02T22:25:21.510Z,101401.88
2022-08-02T22:28:35.976Z,101411.81
2022-08-02T22:30:43.360Z,101401.88
2022-08-02T22:33:33.045Z,101408.44
2022-08-02T22:36:01.159Z,101398.31
2022-08-02T22:38:29.156Z,101400.13
2022-08-02T22:40:56.110Z,101403.53
2022-08-02T22:43:23.565Z,101403.53
2022-08-02T22:45:50.904Z,101398.16
2022-08-02T22:48:18.273Z,101403.00
2022-08-02T22:50:45.140Z,101404.66
2022-08-02T22:53:12.395Z,101402.94
2022-08-02T22:55:41.647Z,101398.59
2022-08-02T22:58:09.311Z,101402.41
2022-08-02T22:58:35.575Z,101365.91
2022-08-02T22:58:36.523Z,101372.09
2022-08-02T23:00:36.220Z,101411.25
2022-08-02T23:03:06.747Z,101400.75
2022-08-02T23:05:34.178Z,101404.81
2022-08-02T23:08:01.503Z,101408.53
2022-08-02T23:10:28.556Z,101416.22
2022-08-02T23:12:59.012Z,101404.59
2022-08-02T23:15:26.931Z,101400.22
2022-08-02T23:18:15.361Z,101401.97
2022-08-02T23:20:45.262Z,101398.63
2022-08-02T23:23:12.101Z,101407.00
2022-08-02T23:25:41.623Z,101403.72
2022-08-02T23:28:08.397Z,101399.41
2022-08-02T23:30:35.383Z,101396.84
2022-08-02T23:33:02.302Z,101392.97
2022-08-02T23:35:29.170Z,101401.69
2022-08-02T23:37:59.132Z,101402.28
2022-08-02T23:40:40.240Z,101398.78
2022-08-02T23:43:15.069Z,101389.25
2022-08-02T23:45:48.401Z,101396.59
2022-08-02T23:48:16.120Z,101392.31
2022-08-02T23:50:42.926Z,101390.13
2022-08-02T23:53:09.750Z,101387.94
2022-08-02T23:55:36.644Z,101380.94
2022-08-02T23:58:03.511Z,101380.25
